MMUN/CUN METAR and TAF weather

Enter ICAO airport designator
Station Type Date Time Source
MMUN METAR 2021/05/12 23:41 UTC NOAA

MMUN 122341Z 16008KT 7SM BKN015 29/24 A2997 RMK SLP146 57001 902 8/100 MDT CU


Station Type Date Time Source
MMUN Decoded METAR 2021/05/12 23:41 UTC NOAA

Cancun International Airport, Mexico (MMUN) 21-02N 086-52W
May 12, 2021 - 07:41 PM EDT / 2021.05.12 2341 UTC
Wind: from the SSE (160 degrees) at 9 MPH (8 KT):0
Visibility: 7 mile(s):0
Sky conditions: mostly cloudy
Temperature: 84 F (29 C)
Dew Point: 75 F (24 C)
Relative Humidity: 74%
Pressure (altimeter): 29.97 in. Hg (1014 hPa)
Pressure tendency: 0.00 inches (0.1 hPa) lower than three hours ago
ob: MMUN 122341Z 16008KT 7SM BKN015 29/24 A2997 RMK SLP146 57001 902 8/100 MDT CU
cycle: 23

Station Type Date Time Source
MMUN TAF 2021/05/12 21:54 UTC NOAA

TAF
AMD MMUN 122047Z 1221/1324 13015KT P6SM BKN015 TX31/1320Z TN26/1312Z
FM122300 12015KT P6SM SCT015
FM130300 12005KT P6SM SCT015
FM131600 12015KT P6SM SCT015
TEMPO 1318/1322 BKN015

Example: see airport list